Thomas, New Mexico
Current Conditions -  °F | °C
As of 3:55 AM on Friday 31 Oct 2014 (Local Time) from KCAO Reporting Station
Clear Clear  
Wind Chill: 39°   Ceiling: Unl
Heat Index: 43°   Visibility: 10mi
Dew Point: 24°   Wind: 6mph
Humidity: 47%   Direction: 20°NNE
Pressure: 30.42"   Gusts: NA
Location:  36.2639°N, 103.376°W
Report Text: KCAO 310955Z AUTO 02005KT 10SM CLR 06/M04 A3042 RMK AO2 SLP270 T00611044
Loading
Personal Weather Stations






























Interactive Weather Map
Tropical Storm Tracking
New forecast layout! Learn more

10-Day Weather Forecast

Advertisements
Track Severe Weather on mobile